• Join FlightAware (Why Join?)
  • Login
  • US Flag 
12:15PM EDT


 

Airport Tracker/Info


-or-


 

Live Flight TrackerFlight Track Log ✈ EJA930 ✈ 26-Jun-2013 ✈ KABE - KLCI

Flight Track Log - Related Links

Times and Time Zones

All times are in EDT time to prevent confusion due to time zone crossing. See the EJA930 flight status page for this flight to view local times or setup timezone preferences in your user account.

Time Position Orientation Groundspeed Altitude Reporting Facility
EDT Latitude Longitude Course Direction KTS MPH feet Rate Location/Type
06:28AM 40.7300 -75.5361 56° Northeast 321 369 8,000  Level New York Center
06:29AM 40.8106 -75.5058 16° North 326 375 8,300 1,380 Climbing New York Center
06:30AM 40.8950 -75.4761 15° North 321 369 10,900 1,740 Climbing New York Center
06:31AM 40.9911 -75.4664 North 321 369 11,900 1,380 Climbing New York Center
06:32AM 41.3856 -75.4667 North  Level FlightAware Approximate
06:32AM 41.0869 -75.4703 358° North 361 415 13,700  Level New York Center
06:33AM 41.5001 -75.4332 56° Northeast  Level FlightAware Approximate
06:33AM 41.2014 -75.4725 359° North 372 428 15,900  Level New York Center
06:34AM 41.3053 -75.4744 359° North 372 428 17,800 1,920 Climbing New York Center
06:35AM 41.4072 -75.4786 358° North 372 428 19,800 1,800 Climbing New York Center
06:36AM 41.4919 -75.4458 16° North 372 428 21,400 1,560 Climbing New York Center
06:38AM 41.6783 -75.2253 41° Northeast 429 494 25,000 1,560 Climbing Boston Center
06:39AM 41.7644 -75.1094 45° Northeast 424 488 26,500 1,500 Climbing Boston Center
06:40AM 41.8525 -74.9958 44° Northeast 430 495 28,000 1,200 Climbing Boston Center
06:41AM 41.9642 -74.8497 44° Northeast 442 509 29,000 480 Climbing Boston Center
06:42AM 42.0425 -74.6961 55° Northeast 472 543 29,000  Level Boston Center
06:43AM 42.1247 -74.5311 56° Northeast 500 575 29,000  Level Boston Center
06:44AM 42.2178 -74.3436 56° Northeast 535 616 29,000  Level Boston Center
06:45AM 42.2997 -74.1719 57° Northeast 545 627 29,000  Level Boston Center
06:46AM 42.3833 -74.0028 56° Northeast 545 627 29,000 -120 Level Boston Center
06:47AM 42.4669 -73.8306 57° Northeast 545 627 28,800 -900 Descending Boston Center
06:48AM 42.5481 -73.6575 57° Northeast 545 627 27,200 -1,860 Descending Boston Center
06:49AM 42.6289 -73.4897 57° Northeast 545 627 25,100 -2,100 Descending Boston Center
06:50AM 42.7075 -73.3217 57° Northeast 539 620 23,100 -1,860 Descending Boston Center
06:51AM 42.7753 -73.1756 58° Northeast 524 603 21,400 -1,800 Descending Boston Center
06:52AM 42.8492 -73.0206 57° Northeast 509 586 19,500 -1,260 Descending Boston Center
06:53AM 42.9206 -72.8653 58° Northeast 488 562 18,900 -1,020 Descending Boston Center
06:54AM 42.9900 -72.7125 58° Northeast 480 552 17,500 -1,920 Descending Boston Center
06:55AM 43.0611 -72.5622 57° Northeast 475 547 15,100 -2,460 Descending Boston Center
06:56AM 43.1256 -72.4203 58° Northeast 461 531 12,600 -2,160 Descending Boston Center
06:57AM 43.1861 -72.2833 59° Northeast 435 501 10,800 -1,320 Descending Boston Center
06:58AM 43.2400 -72.1636 58° Northeast 360 414 10,000 -1,200 Descending Boston Center
06:59AM 43.2792 -72.0722 59° Northeast 311 358 8,400 -1,800 Descending Boston Center
07:00AM 43.3269 -71.9719 57° Northeast 288 331 6,500 -1,620 Descending Boston Center
07:01AM 43.3639 -71.8861 59° Northeast 288 331 5,200 -720 Descending Boston Center
07:02AM 43.4072 -71.7914 58° Northeast 272 313 5,100 -360 Descending Boston Center
07:04AM 43.4422 -71.7139 58° Northeast 272 313 4,500 -660 Descending Boston Center
07:05AM 43.4853 -71.5989 63° Northeast 266 306 3,700 -900 Descending Boston Center
07:06AM 43.4950 -71.5156 81° East 232 267 2,700 -840 Descending Boston Center
07:07AM 43.5236 -71.4581 56° Northeast 197 227 2,100 -300 Descending Boston Center
07:08AM 43.5461 -71.3947 64° Northeast 180 207 2,100  Level Boston Center
07:09AM 43.5661 -71.3283 67° East 180 207 2,100  Level Boston Center
07:10AM 43.5864 -71.2736 63° Northeast 180 207 2,100 3,420 Level Boston Center
07:11AM 43.6067 -71.2100 66° East 180 207 9,000 3,420 Climbing Boston Center
07:12AM 43.6267 -71.1436 67° East 180 207 9,000  Level Boston Center
07:14AM 43.5782 -71.3918 258° West  Level Estimated
07:21AM 43.5667 -71.4167 258° West  Level FlightAware Approximate
07:22AM 43.5730 -71.4178 258° West  Level Estimated
07:23AM 43.5667 -71.4167 258° West  Level FlightAware Approximate
07:24AM 43.5730 -71.4178 258° West  Level Estimated